createdAt,value
2023-06-19T00:00:58.314Z,23.28
2023-06-19T00:01:58.300Z,23.28
2023-06-19T00:02:58.462Z,23.31
2023-06-19T00:03:58.547Z,23.24
2023-06-19T00:04:58.516Z,23.27
2023-06-19T00:05:58.611Z,23.28
2023-06-19T00:06:58.753Z,23.31
2023-06-19T00:07:58.778Z,23.32
2023-06-19T00:08:58.866Z,23.28
2023-06-19T00:09:58.976Z,23.31
2023-06-19T00:10:58.997Z,23.20
2023-06-19T00:11:59.109Z,23.18
2023-06-19T00:12:59.188Z,23.23
2023-06-19T00:13:59.842Z,23.24
2023-06-19T00:14:59.401Z,23.24
2023-06-19T00:15:59.485Z,23.10
2023-06-19T00:16:59.549Z,23.17
2023-06-19T00:17:59.827Z,23.23
2023-06-19T00:18:59.696Z,23.18
2023-06-19T00:19:59.849Z,23.25
2023-06-19T00:20:59.921Z,23.27
2023-06-19T00:21:59.980Z,23.20
2023-06-19T00:23:00.049Z,23.21
2023-06-19T00:24:00.140Z,23.24
2023-06-19T00:25:00.277Z,23.24
2023-06-19T00:26:00.275Z,23.23
2023-06-19T00:27:00.360Z,23.23
2023-06-19T00:28:00.446Z,23.24
2023-06-19T00:29:00.506Z,23.23
2023-06-19T00:30:00.577Z,23.17
2023-06-19T00:31:01.332Z,23.17
2023-06-19T00:32:00.855Z,23.14
2023-06-19T00:33:00.931Z,23.06
2023-06-19T00:34:00.999Z,22.99
2023-06-19T00:35:01.107Z,23.04
2023-06-19T00:36:01.180Z,22.97
2023-06-19T00:37:01.292Z,23.00
2023-06-19T00:38:01.366Z,23.00
2023-06-19T00:39:01.467Z,22.99
2023-06-19T00:40:01.555Z,22.86
2023-06-19T00:41:01.622Z,22.93
2023-06-19T00:42:01.841Z,22.93
2023-06-19T00:43:01.860Z,22.89
2023-06-19T00:44:01.952Z,22.95
2023-06-19T00:45:02.042Z,22.95
2023-06-19T00:46:02.195Z,22.97
2023-06-19T00:47:02.230Z,22.95
2023-06-19T00:48:02.466Z,22.95
2023-06-19T00:49:02.401Z,22.96
2023-06-19T00:50:02.526Z,22.96
2023-06-19T00:51:02.600Z,22.93
2023-06-19T00:52:02.696Z,23.00
2023-06-19T00:53:02.796Z,22.95
2023-06-19T00:54:02.892Z,22.96
2023-06-19T00:55:02.993Z,22.95
2023-06-19T00:56:03.095Z,22.73
2023-06-19T00:57:03.204Z,22.80
2023-06-19T00:58:03.424Z,22.85
2023-06-19T00:59:03.402Z,22.86
2023-06-19T01:00:03.504Z,22.89
2023-06-19T01:01:08.693Z,22.87
2023-06-19T01:02:04.704Z,22.87
2023-06-19T01:03:03.766Z,22.86
2023-06-19T01:04:03.932Z,22.87
2023-06-19T01:05:03.851Z,22.87
2023-06-19T01:06:03.910Z,22.87
2023-06-19T01:07:03.963Z,22.86
2023-06-19T01:08:04.047Z,22.80
2023-06-19T01:09:04.075Z,22.79
2023-06-19T01:10:04.156Z,22.69
2023-06-19T01:11:11.814Z,22.61
2023-06-19T01:12:05.281Z,22.66
2023-06-19T01:13:04.344Z,22.54
2023-06-19T01:14:04.403Z,22.48
2023-06-19T01:15:04.479Z,22.55
2023-06-19T01:16:04.551Z,22.50
2023-06-19T01:17:04.652Z,22.43
2023-06-19T01:18:04.821Z,22.40
2023-06-19T01:19:04.765Z,22.47
2023-06-19T01:20:04.845Z,22.41
2023-06-19T01:21:04.914Z,22.44
2023-06-19T01:22:05.353Z,22.48
2023-06-19T01:23:05.070Z,22.52
2023-06-19T01:24:05.347Z,22.56
2023-06-19T01:25:05.315Z,22.56
2023-06-19T01:26:05.445Z,22.61
2023-06-19T01:27:05.551Z,22.61
2023-06-19T01:28:05.685Z,22.62
2023-06-19T01:29:05.849Z,22.62
2023-06-19T01:30:05.908Z,22.56
2023-06-19T01:31:06.022Z,22.59
2023-06-19T01:32:06.347Z,22.61
2023-06-19T01:33:06.353Z,22.52
2023-06-19T01:34:06.399Z,22.43
2023-06-19T01:35:06.533Z,22.37
2023-06-19T01:36:06.674Z,22.34
2023-06-19T01:37:06.807Z,22.35
2023-06-19T01:38:06.946Z,22.40
2023-06-19T01:39:07.078Z,22.43
2023-06-19T01:40:07.206Z,22.40
2023-06-19T01:41:07.321Z,22.45
2023-06-19T01:42:07.437Z,22.48
2023-06-19T01:43:07.560Z,22.45
2023-06-19T01:44:07.693Z,22.44
2023-06-19T01:45:07.834Z,22.45
2023-06-19T01:46:07.985Z,22.48
2023-06-19T01:47:08.051Z,22.50
2023-06-19T01:48:08.206Z,22.50
2023-06-19T01:49:08.299Z,22.48
2023-06-19T01:50:09.367Z,22.50
2023-06-19T01:51:08.616Z,22.48
2023-06-19T01:52:08.856Z,22.44
2023-06-19T01:53:08.769Z,22.47
2023-06-19T01:54:08.874Z,22.50
2023-06-19T01:55:08.981Z,22.51
2023-06-19T01:56:09.093Z,22.50
2023-06-19T01:57:09.214Z,22.44
2023-06-19T01:58:09.324Z,22.47
2023-06-19T01:59:09.439Z,22.45
2023-06-19T02:00:09.572Z,22.43
2023-06-19T02:01:09.679Z,22.44
2023-06-19T02:02:09.839Z,22.43
2023-06-19T02:03:10.049Z,22.43
2023-06-19T02:04:10.073Z,22.44
2023-06-19T02:05:10.193Z,22.43
2023-06-19T02:06:10.319Z,22.43
2023-06-19T02:07:10.471Z,22.40
2023-06-19T02:08:10.585Z,22.41
2023-06-19T02:09:11.365Z,22.40
2023-06-19T02:10:10.910Z,22.41
2023-06-19T02:11:10.980Z,22.40
2023-06-19T02:12:11.117Z,22.43
2023-06-19T02:13:11.257Z,22.41
2023-06-19T02:14:11.374Z,22.41
2023-06-19T02:15:11.581Z,22.41
2023-06-19T02:16:11.673Z,22.40
2023-06-19T02:17:11.769Z,21.96
2023-06-19T02:18:11.885Z,22.10
2023-06-19T02:19:12.034Z,22.03
2023-06-19T02:20:12.192Z,22.11
2023-06-19T02:21:12.331Z,22.17
2023-06-19T02:22:12.477Z,22.13
2023-06-19T02:23:12.628Z,22.13
2023-06-19T02:24:12.784Z,22.20
2023-06-19T02:25:12.905Z,22.23
2023-06-19T02:26:13.042Z,22.23
2023-06-19T02:27:13.186Z,22.25
2023-06-19T02:28:13.330Z,22.24
2023-06-19T02:29:13.516Z,22.24
2023-06-19T02:30:13.609Z,22.28
2023-06-19T02:31:13.740Z,22.30
2023-06-19T02:32:13.879Z,22.27
2023-06-19T02:33:14.000Z,22.30
2023-06-19T02:34:14.134Z,22.28
2023-06-19T02:35:14.260Z,22.30
2023-06-19T02:36:14.385Z,22.13
2023-06-19T02:37:14.531Z,22.07
2023-06-19T02:38:14.655Z,22.02
2023-06-19T02:39:14.848Z,22.04
2023-06-19T02:40:14.945Z,22.02
2023-06-19T02:41:15.068Z,22.04
2023-06-19T02:42:15.208Z,22.07
2023-06-19T02:43:15.331Z,22.13
2023-06-19T02:44:15.453Z,22.00
2023-06-19T02:45:15.581Z,22.10
2023-06-19T02:46:15.739Z,22.17
2023-06-19T02:47:15.813Z,22.18
2023-06-19T02:48:15.926Z,22.23
2023-06-19T02:49:16.044Z,22.18
2023-06-19T02:50:16.154Z,22.23
2023-06-19T02:51:16.250Z,22.07
2023-06-19T02:52:16.356Z,22.07
2023-06-19T02:53:16.454Z,22.06
2023-06-19T02:54:16.549Z,22.00
2023-06-19T02:55:16.671Z,22.06
2023-06-19T02:56:16.782Z,22.09
2023-06-19T02:57:16.904Z,21.91
2023-06-19T02:58:17.025Z,21.92
2023-06-19T02:59:17.156Z,21.92
2023-06-19T03:00:17.279Z,21.81
2023-06-19T03:01:17.445Z,21.85
2023-06-19T03:02:17.476Z,21.89
2023-06-19T03:03:17.680Z,21.93
2023-06-19T03:04:17.697Z,21.86
2023-06-19T03:05:17.761Z,21.96
2023-06-19T03:06:17.888Z,21.91
2023-06-19T03:07:18.082Z,22.03
2023-06-19T03:08:18.210Z,22.09
2023-06-19T03:09:18.342Z,22.06
2023-06-19T03:10:18.473Z,22.10
2023-06-19T03:11:18.622Z,22.13
2023-06-19T03:12:18.724Z,22.13
2023-06-19T03:13:18.860Z,22.04
2023-06-19T03:14:19.030Z,22.07
2023-06-19T03:15:19.056Z,22.13
2023-06-19T03:16:19.189Z,22.14
2023-06-19T03:17:19.382Z,22.07
2023-06-19T03:18:19.381Z,22.07
2023-06-19T03:19:19.482Z,21.71
2023-06-19T03:20:19.564Z,21.68
2023-06-19T03:21:20.394Z,21.78
2023-06-19T03:22:19.783Z,21.86
2023-06-19T03:23:20.378Z,21.93
2023-06-19T03:24:20.012Z,21.83
2023-06-19T03:25:20.137Z,21.68
2023-06-19T03:26:20.270Z,21.55
2023-06-19T03:27:20.391Z,21.37
2023-06-19T03:28:20.553Z,21.33
2023-06-19T03:29:20.725Z,21.30
2023-06-19T03:30:20.935Z,21.16
2023-06-19T03:31:21.079Z,21.14
2023-06-19T03:32:21.355Z,21.17
2023-06-19T03:33:21.417Z,21.11
2023-06-19T03:34:21.587Z,21.00
2023-06-19T03:35:21.775Z,21.09
2023-06-19T03:36:21.934Z,20.89
2023-06-19T03:37:22.066Z,20.93
2023-06-19T03:38:22.206Z,20.93
2023-06-19T03:39:22.363Z,21.00
2023-06-19T03:40:22.868Z,20.92
2023-06-19T03:41:22.714Z,20.92
2023-06-19T03:42:22.865Z,21.00
2023-06-19T03:43:23.030Z,21.02
2023-06-19T03:44:23.191Z,20.99
2023-06-19T03:45:23.312Z,20.99
2023-06-19T03:46:23.518Z,20.88
2023-06-19T03:47:23.636Z,21.03
2023-06-19T03:48:23.774Z,21.00
2023-06-19T03:49:23.902Z,20.97
2023-06-19T03:50:26.389Z,21.09
2023-06-19T03:51:24.135Z,21.03
2023-06-19T03:52:24.229Z,21.19
2023-06-19T03:53:24.319Z,21.20
2023-06-19T03:54:24.403Z,21.16
2023-06-19T03:55:24.512Z,21.27
2023-06-19T03:56:24.590Z,21.14
2023-06-19T03:57:24.692Z,20.96
2023-06-19T03:58:24.782Z,21.06
2023-06-19T03:59:24.883Z,21.22
2023-06-19T04:00:25.250Z,21.06
2023-06-19T04:01:25.088Z,21.22
2023-06-19T04:02:25.175Z,21.27
2023-06-19T04:03:25.301Z,21.17
2023-06-19T04:04:25.374Z,21.17
2023-06-19T04:05:25.439Z,21.26
2023-06-19T04:06:25.562Z,21.31
2023-06-19T04:07:25.643Z,21.33
2023-06-19T04:08:25.728Z,21.34
2023-06-19T04:09:25.835Z,21.29
2023-06-19T04:10:26.270Z,21.19
2023-06-19T04:11:26.034Z,21.20
2023-06-19T04:12:26.131Z,21.16
2023-06-19T04:13:26.289Z,21.00
2023-06-19T04:14:26.338Z,20.71
2023-06-19T04:15:26.481Z,20.76
2023-06-19T04:16:27.536Z,20.72
2023-06-19T04:17:26.696Z,20.64
2023-06-19T04:18:26.790Z,20.74
2023-06-19T04:19:27.914Z,20.79
2023-06-19T04:20:27.099Z,20.86
2023-06-19T04:21:27.128Z,20.90
2023-06-19T04:22:27.287Z,20.88
2023-06-19T04:23:27.290Z,20.83
2023-06-19T04:24:27.936Z,20.75
2023-06-19T04:25:27.469Z,20.99
2023-06-19T04:26:27.515Z,21.24
2023-06-19T04:27:27.586Z,21.30
2023-06-19T04:28:27.667Z,21.34
2023-06-19T04:29:27.745Z,21.44
2023-06-19T04:30:27.972Z,21.40
2023-06-19T04:31:27.938Z,21.38
2023-06-19T04:32:28.099Z,21.41
2023-06-19T04:33:29.122Z,21.42
2023-06-19T04:34:28.225Z,21.51
2023-06-19T04:35:28.316Z,21.57
2023-06-19T04:36:28.407Z,21.64
2023-06-19T04:37:28.485Z,21.66
2023-06-19T04:38:28.599Z,21.74
2023-06-19T04:39:28.624Z,21.82
2023-06-19T04:40:28.711Z,21.85
2023-06-19T04:41:28.798Z,21.91
2023-06-19T04:42:28.867Z,21.72
2023-06-19T04:43:30.417Z,21.72
2023-06-19T04:44:29.911Z,21.82
2023-06-19T04:45:29.103Z,21.88
2023-06-19T04:46:29.267Z,21.71
2023-06-19T04:47:39.784Z,21.66
2023-06-19T04:48:30.493Z,21.74
2023-06-19T04:49:29.426Z,21.64
2023-06-19T04:50:29.520Z,21.47
2023-06-19T04:51:29.616Z,21.57
2023-06-19T04:52:29.793Z,21.62
2023-06-19T04:53:29.801Z,21.62
2023-06-19T04:54:29.909Z,21.64
2023-06-19T04:55:29.994Z,21.58
2023-06-19T04:56:30.070Z,21.51
2023-06-19T04:57:30.183Z,21.37
2023-06-19T04:58:30.270Z,21.22
2023-06-19T04:59:30.365Z,21.42
2023-06-19T05:00:30.465Z,21.14
2023-06-19T05:01:30.572Z,21.13
2023-06-19T05:02:30.680Z,21.03
2023-06-19T05:03:30.764Z,20.93
2023-06-19T05:04:30.900Z,21.20
2023-06-19T05:05:30.966Z,20.68
2023-06-19T05:06:31.050Z,20.85
2023-06-19T05:07:31.159Z,20.83
2023-06-19T05:08:31.246Z,20.96
2023-06-19T05:09:31.917Z,20.86
2023-06-19T05:10:31.515Z,20.95
2023-06-19T05:11:31.632Z,20.68
2023-06-19T05:12:31.761Z,20.83
2023-06-19T05:13:31.896Z,21.03
2023-06-19T05:14:32.017Z,21.26
2023-06-19T05:15:32.145Z,21.45
2023-06-19T05:16:34.401Z,21.62
2023-06-19T05:17:32.409Z,21.74
2023-06-19T05:18:32.408Z,21.85
2023-06-19T05:19:32.467Z,21.92
2023-06-19T05:20:32.535Z,21.79
2023-06-19T05:21:32.608Z,21.78
2023-06-19T05:22:32.670Z,21.62
2023-06-19T05:23:32.724Z,21.49
2023-06-19T05:24:32.832Z,21.37
2023-06-19T05:25:32.851Z,21.68
2023-06-19T05:26:32.917Z,21.55
2023-06-19T05:27:32.976Z,21.81
2023-06-19T05:28:33.036Z,21.86
2023-06-19T05:29:33.083Z,21.99
2023-06-19T05:30:33.233Z,22.07
2023-06-19T05:31:33.203Z,22.27
2023-06-19T05:32:33.331Z,22.34
2023-06-19T05:33:33.310Z,22.40
2023-06-19T05:34:33.357Z,22.34
2023-06-19T05:35:33.419Z,22.44
2023-06-19T05:36:33.472Z,22.52
2023-06-19T05:37:33.507Z,22.28
2023-06-19T05:38:33.546Z,22.54
2023-06-19T05:39:33.585Z,22.16
2023-06-19T05:40:33.628Z,22.09
2023-06-19T05:41:33.692Z,22.07
2023-06-19T05:42:33.843Z,22.20
2023-06-19T05:43:34.948Z,22.17
2023-06-19T05:44:34.063Z,22.10
2023-06-19T05:45:34.147Z,22.00
2023-06-19T05:46:34.240Z,21.97
2023-06-19T05:47:34.363Z,22.07
2023-06-19T05:48:34.432Z,22.11
2023-06-19T05:49:34.531Z,22.07
2023-06-19T05:50:34.608Z,22.14
2023-06-19T05:51:34.683Z,22.23
2023-06-19T05:52:34.765Z,22.28
2023-06-19T05:53:34.844Z,22.27
2023-06-19T05:54:34.957Z,21.79
2023-06-19T05:55:35.068Z,21.86
2023-06-19T05:56:35.128Z,21.89
2023-06-19T05:57:35.289Z,22.07
2023-06-19T05:58:35.298Z,21.91
2023-06-19T05:59:35.455Z,21.76
2023-06-19T06:00:35.609Z,21.96
2023-06-19T06:01:35.574Z,22.13
2023-06-19T06:02:35.714Z,22.14
2023-06-19T06:03:35.792Z,22.34
2023-06-19T06:04:36.020Z,22.47
2023-06-19T06:05:35.960Z,22.40
2023-06-19T06:06:36.034Z,22.52
2023-06-19T06:07:36.558Z,22.61
2023-06-19T06:08:36.165Z,22.66
2023-06-19T06:09:36.258Z,22.85
2023-06-19T06:10:36.377Z,22.97
2023-06-19T06:11:36.530Z,23.03
2023-06-19T06:12:36.939Z,23.02
2023-06-19T06:13:36.799Z,23.17
2023-06-19T06:14:37.449Z,23.14
2023-06-19T06:15:36.909Z,23.07
2023-06-19T06:16:37.032Z,23.17
2023-06-19T06:17:37.113Z,23.23
2023-06-19T06:18:37.176Z,23.17
2023-06-19T06:19:37.360Z,23.15
2023-06-19T06:20:37.395Z,23.17
2023-06-19T06:21:37.516Z,23.15
2023-06-19T06:22:37.698Z,23.24
2023-06-19T06:23:37.778Z,23.25
2023-06-19T06:24:37.921Z,23.32
2023-06-19T06:25:37.982Z,23.35
2023-06-19T06:26:38.986Z,23.41
2023-06-19T06:27:38.132Z,22.96
2023-06-19T06:28:38.189Z,23.18
2023-06-19T06:29:39.331Z,23.25
2023-06-19T06:30:38.441Z,23.45
2023-06-19T06:31:38.509Z,23.56
2023-06-19T06:32:38.597Z,23.52
2023-06-19T06:33:38.683Z,23.70
2023-06-19T06:34:38.899Z,23.58
2023-06-19T06:35:39.086Z,23.18
2023-06-19T06:36:46.389Z,23.52
2023-06-19T06:37:40.286Z,23.69
2023-06-19T06:38:39.323Z,23.75
2023-06-19T06:39:39.345Z,23.84
2023-06-19T06:40:39.456Z,23.86
2023-06-19T06:41:39.420Z,23.92
2023-06-19T06:42:39.450Z,23.96
2023-06-19T06:43:39.481Z,24.00
2023-06-19T06:44:39.523Z,24.01
2023-06-19T06:45:39.660Z,24.09
2023-06-19T06:46:39.592Z,24.09
2023-06-19T06:47:39.692Z,24.06
2023-06-19T06:48:39.760Z,24.14
2023-06-19T06:49:39.852Z,24.13
2023-06-19T06:50:39.933Z,24.16
2023-06-19T06:51:40.017Z,24.25
2023-06-19T06:52:40.086Z,24.24
2023-06-19T06:53:40.959Z,24.34
2023-06-19T06:54:40.320Z,24.38
2023-06-19T06:55:40.343Z,24.41
2023-06-19T06:56:40.421Z,24.51
2023-06-19T06:57:40.477Z,24.55
2023-06-19T06:58:40.551Z,24.61
2023-06-19T06:59:40.594Z,24.70
2023-06-19T07:00:40.664Z,24.56
2023-06-19T07:01:40.713Z,24.56
2023-06-19T07:02:40.899Z,24.63
2023-06-19T07:03:40.886Z,24.55
2023-06-19T07:04:40.854Z,24.52
2023-06-19T07:05:40.914Z,24.32
2023-06-19T07:06:40.951Z,24.50
2023-06-19T07:07:41.028Z,24.38
2023-06-19T07:08:41.065Z,24.55
2023-06-19T07:09:41.182Z,24.62
2023-06-19T07:10:41.147Z,24.65
2023-06-19T07:11:41.207Z,24.68
2023-06-19T07:12:41.264Z,24.69
2023-06-19T07:13:41.379Z,24.69
2023-06-19T07:14:41.383Z,24.50
2023-06-19T07:15:41.435Z,24.62
2023-06-19T07:16:41.522Z,24.69
2023-06-19T07:17:41.671Z,24.76
2023-06-19T07:18:41.581Z,24.62
2023-06-19T07:19:41.612Z,24.73
2023-06-19T07:20:41.676Z,24.89
2023-06-19T07:21:41.760Z,24.93
2023-06-19T07:22:41.829Z,25.02
2023-06-19T07:23:42.480Z,25.03
2023-06-19T07:24:42.061Z,24.98
2023-06-19T07:25:41.989Z,25.13
2023-06-19T07:26:42.027Z,25.17
2023-06-19T07:27:42.108Z,25.21
2023-06-19T07:28:42.186Z,25.27
2023-06-19T07:29:42.170Z,25.34
2023-06-19T07:30:42.184Z,25.41
2023-06-19T07:31:42.198Z,25.38
2023-06-19T07:32:42.260Z,25.49
2023-06-19T07:33:42.234Z,25.48
2023-06-19T07:34:42.273Z,25.41
2023-06-19T07:35:42.343Z,25.62
2023-06-19T07:36:42.310Z,25.55
2023-06-19T07:37:42.381Z,25.70
2023-06-19T07:38:42.508Z,25.76
2023-06-19T07:39:42.495Z,25.80
2023-06-19T07:40:42.571Z,25.82
2023-06-19T07:41:42.582Z,25.97
2023-06-19T07:42:44.583Z,26.10
2023-06-19T07:43:42.737Z,26.17
2023-06-19T07:44:42.755Z,26.13
2023-06-19T07:45:42.839Z,26.23
2023-06-19T07:46:42.865Z,26.27
2023-06-19T07:47:42.960Z,26.41
2023-06-19T07:48:42.949Z,26.53
2023-06-19T07:49:43.120Z,26.46
2023-06-19T07:50:43.049Z,26.58
2023-06-19T07:51:43.142Z,26.56
2023-06-19T07:52:43.184Z,26.58
2023-06-19T07:53:43.224Z,26.70
2023-06-19T07:54:43.361Z,26.77
2023-06-19T07:55:43.234Z,26.73
2023-06-19T07:56:43.261Z,26.91
2023-06-19T07:57:43.301Z,27.00
2023-06-19T07:58:43.311Z,27.00
2023-06-19T07:59:43.474Z,27.13
2023-06-19T08:00:43.341Z,27.24
2023-06-19T08:01:43.378Z,27.29
2023-06-19T08:02:43.459Z,27.34
2023-06-19T08:03:43.446Z,27.15
2023-06-19T08:04:43.447Z,27.39
2023-06-19T08:05:43.438Z,27.48
2023-06-19T08:06:43.467Z,27.53
2023-06-19T08:07:43.485Z,27.62
2023-06-19T08:08:43.493Z,27.69
2023-06-19T08:09:43.507Z,27.73
2023-06-19T08:10:43.550Z,27.66
2023-06-19T08:11:43.554Z,27.70
2023-06-19T08:12:43.999Z,27.66
2023-06-19T08:13:43.556Z,27.63
2023-06-19T08:14:43.677Z,27.80
2023-06-19T08:15:44.455Z,27.84
2023-06-19T08:16:43.662Z,27.97
2023-06-19T08:17:43.672Z,28.07
2023-06-19T08:18:43.679Z,27.96
2023-06-19T08:19:43.614Z,28.01
2023-06-19T08:20:43.611Z,28.17
2023-06-19T08:21:43.582Z,28.09
2023-06-19T08:22:43.570Z,28.05
2023-06-19T08:23:43.547Z,28.17
2023-06-19T08:24:43.568Z,28.34
2023-06-19T08:25:43.529Z,28.39
2023-06-19T08:26:43.551Z,28.42
2023-06-19T08:27:43.472Z,28.45
2023-06-19T08:28:43.450Z,28.56
2023-06-19T08:29:43.444Z,28.59
2023-06-19T08:30:43.441Z,28.64
2023-06-19T08:31:43.466Z,28.73
2023-06-19T08:32:43.530Z,28.66
2023-06-19T08:33:44.423Z,28.77
2023-06-19T08:34:43.589Z,28.77
2023-06-19T08:35:43.548Z,28.77
2023-06-19T08:36:44.508Z,28.89
2023-06-19T08:37:43.595Z,28.97
2023-06-19T08:38:44.418Z,29.04
2023-06-19T08:39:43.636Z,28.94
2023-06-19T08:40:43.658Z,29.12
2023-06-19T08:41:43.759Z,29.10
2023-06-19T08:42:43.710Z,28.80
2023-06-19T08:43:43.712Z,29.00
2023-06-19T08:44:43.719Z,29.05
2023-06-19T08:45:43.784Z,29.11
2023-06-19T08:46:43.783Z,28.86
2023-06-19T08:47:43.790Z,29.05
2023-06-19T08:48:43.786Z,29.04
2023-06-19T08:49:43.817Z,28.98
2023-06-19T08:50:44.770Z,28.94
2023-06-19T08:51:43.754Z,28.91
2023-06-19T08:52:43.725Z,28.91
2023-06-19T08:53:43.710Z,29.08
2023-06-19T08:54:43.684Z,29.01
2023-06-19T08:55:44.015Z,28.84
2023-06-19T08:56:43.637Z,29.11
2023-06-19T08:57:43.615Z,29.10
2023-06-19T08:58:43.562Z,28.90
2023-06-19T08:59:43.564Z,29.12
2023-06-19T09:00:43.573Z,29.26
2023-06-19T09:01:43.570Z,29.22
2023-06-19T09:02:43.675Z,29.20
2023-06-19T09:03:43.676Z,29.25
2023-06-19T09:04:43.613Z,29.26
2023-06-19T09:05:46.772Z,29.29
2023-06-19T09:06:43.652Z,29.28
2023-06-19T09:07:43.538Z,29.28
2023-06-19T09:08:43.491Z,29.21
2023-06-19T09:09:43.449Z,29.35
2023-06-19T09:10:43.401Z,29.48
2023-06-19T09:11:43.351Z,29.48
2023-06-19T09:12:43.387Z,29.33
2023-06-19T09:13:43.269Z,29.38
2023-06-19T09:14:43.224Z,29.32
2023-06-19T09:15:43.172Z,29.20
2023-06-19T09:16:43.140Z,29.46
2023-06-19T09:17:43.150Z,29.20
2023-06-19T09:18:43.059Z,29.25
2023-06-19T09:19:43.004Z,29.38
2023-06-19T09:20:43.026Z,29.48
2023-06-19T09:21:44.021Z,29.32
2023-06-19T09:22:42.859Z,29.38
2023-06-19T09:23:42.822Z,29.20
2023-06-19T09:24:42.916Z,29.31
2023-06-19T09:25:42.920Z,29.17
2023-06-19T09:26:42.726Z,29.31
2023-06-19T09:27:42.757Z,29.42
2023-06-19T09:28:42.802Z,29.40
2023-06-19T09:29:42.827Z,29.56
2023-06-19T09:30:42.805Z,29.59
2023-06-19T09:31:42.812Z,29.69
2023-06-19T09:32:42.880Z,29.70
2023-06-19T09:33:42.861Z,29.63
2023-06-19T09:34:42.726Z,29.64
2023-06-19T09:35:42.690Z,29.60
2023-06-19T09:36:42.668Z,29.62
2023-06-19T09:37:42.677Z,29.59
2023-06-19T09:38:42.636Z,29.66
2023-06-19T09:39:42.596Z,29.79
2023-06-19T09:40:42.552Z,29.83
2023-06-19T09:41:42.677Z,29.73
2023-06-19T09:42:42.491Z,29.80
2023-06-19T09:43:42.469Z,29.79
2023-06-19T09:44:46.103Z,29.59
2023-06-19T09:45:43.045Z,29.88
2023-06-19T09:46:42.331Z,29.85
2023-06-19T09:47:42.324Z,29.96
2023-06-19T09:48:42.178Z,30.07
2023-06-19T09:49:42.109Z,29.98
2023-06-19T09:50:42.043Z,30.05
2023-06-19T09:51:41.974Z,30.12
2023-06-19T09:52:41.909Z,30.21
2023-06-19T09:53:41.890Z,30.15
2023-06-19T09:54:41.770Z,29.91
2023-06-19T09:55:41.722Z,29.84
2023-06-19T09:56:41.661Z,30.04
2023-06-19T09:57:41.623Z,30.16
2023-06-19T09:58:41.535Z,30.11
2023-06-19T09:59:41.502Z,30.07
2023-06-19T10:00:41.417Z,30.04
2023-06-19T10:01:41.339Z,30.09
2023-06-19T10:02:41.354Z,30.26
2023-06-19T10:03:41.300Z,30.19
2023-06-19T10:04:41.159Z,30.28
2023-06-19T10:05:41.095Z,30.40
2023-06-19T10:06:41.030Z,30.42
2023-06-19T10:07:40.983Z,30.35
2023-06-19T10:08:40.922Z,30.44
2023-06-19T10:09:40.988Z,30.44
2023-06-19T10:10:40.762Z,30.42
2023-06-19T10:11:40.686Z,30.47
2023-06-19T10:12:40.616Z,30.60
2023-06-19T10:13:40.585Z,30.62
2023-06-19T10:14:40.480Z,30.62
2023-06-19T10:15:40.485Z,30.67
2023-06-19T10:16:40.405Z,30.69
2023-06-19T10:17:40.277Z,30.49
2023-06-19T10:18:40.157Z,30.52
2023-06-19T10:19:40.078Z,30.78
2023-06-19T10:20:46.371Z,30.66
2023-06-19T10:21:40.994Z,30.40
2023-06-19T10:22:39.884Z,30.74
2023-06-19T10:23:39.882Z,30.93
2023-06-19T10:24:39.843Z,30.85
2023-06-19T10:25:39.683Z,30.83
2023-06-19T10:26:39.591Z,30.95
2023-06-19T10:27:39.536Z,31.01
2023-06-19T10:28:39.437Z,31.14
2023-06-19T10:29:39.424Z,31.05
2023-06-19T10:30:39.324Z,31.17
2023-06-19T10:31:39.188Z,31.32
2023-06-19T10:32:39.125Z,31.18
2023-06-19T10:33:39.016Z,31.42
2023-06-19T10:34:39.573Z,31.62
2023-06-19T10:35:38.842Z,31.63
2023-06-19T10:36:38.758Z,31.73
2023-06-19T10:37:38.753Z,31.60
2023-06-19T10:38:38.634Z,31.71
2023-06-19T10:39:38.574Z,31.60
2023-06-19T10:40:38.553Z,31.70
2023-06-19T10:41:38.524Z,31.71
2023-06-19T10:42:38.484Z,31.69
2023-06-19T10:43:38.981Z,31.79
2023-06-19T10:44:38.442Z,31.73
2023-06-19T10:45:38.453Z,32.01
2023-06-19T10:46:38.413Z,31.92
2023-06-19T10:47:38.353Z,31.87
2023-06-19T10:48:38.445Z,32.08
2023-06-19T10:49:38.314Z,32.15
2023-06-19T10:50:38.257Z,32.01
2023-06-19T10:51:38.219Z,32.01
2023-06-19T10:52:38.274Z,32.14
2023-06-19T10:53:38.146Z,32.16
2023-06-19T10:54:38.108Z,32.08
2023-06-19T10:55:38.057Z,32.08
2023-06-19T10:56:38.019Z,32.29
2023-06-19T10:57:38.008Z,32.38
2023-06-19T10:58:37.910Z,32.24
2023-06-19T10:59:37.850Z,32.10
2023-06-19T11:00:37.791Z,32.15
2023-06-19T11:01:37.819Z,32.38
2023-06-19T11:02:37.839Z,32.05
2023-06-19T11:03:37.712Z,32.22
2023-06-19T11:04:37.648Z,32.16
2023-06-19T11:05:37.621Z,32.26
2023-06-19T11:06:37.584Z,32.21
2023-06-19T11:07:37.525Z,32.39
2023-06-19T11:08:37.502Z,31.98
2023-06-19T11:09:37.471Z,32.25
2023-06-19T11:10:37.432Z,32.31
2023-06-19T11:11:37.385Z,32.26
2023-06-19T11:12:37.360Z,32.21
2023-06-19T11:13:37.323Z,32.38
2023-06-19T11:14:37.309Z,32.24
2023-06-19T11:15:37.280Z,32.50
2023-06-19T11:16:37.277Z,32.38
2023-06-19T11:17:37.215Z,32.33
2023-06-19T11:18:37.148Z,32.38
2023-06-19T11:19:37.113Z,32.36
2023-06-19T11:20:37.129Z,32.28
2023-06-19T11:21:37.025Z,32.14
2023-06-19T11:22:36.991Z,32.04
2023-06-19T11:23:37.048Z,32.19
2023-06-19T11:24:36.982Z,32.15
2023-06-19T11:25:36.839Z,32.19
2023-06-19T11:26:36.792Z,32.16
2023-06-19T11:27:36.858Z,32.25
2023-06-19T11:28:37.581Z,32.14
2023-06-19T11:29:36.661Z,31.99
2023-06-19T11:30:37.594Z,31.71
2023-06-19T11:31:36.493Z,31.98
2023-06-19T11:32:36.471Z,32.03
2023-06-19T11:33:36.329Z,31.99
2023-06-19T11:34:36.227Z,31.85
2023-06-19T11:35:36.145Z,31.88
2023-06-19T11:36:36.071Z,31.88
2023-06-19T11:37:36.009Z,31.60
2023-06-19T11:38:35.909Z,31.70
2023-06-19T11:39:35.832Z,31.85
2023-06-19T11:40:35.776Z,31.91
2023-06-19T11:41:35.755Z,31.99
2023-06-19T11:42:35.744Z,32.03
2023-06-19T11:43:35.691Z,32.15
2023-06-19T11:44:36.814Z,32.08
2023-06-19T11:45:35.584Z,32.28
2023-06-19T11:46:35.569Z,32.33
2023-06-19T11:47:35.511Z,32.74
2023-06-19T11:48:35.422Z,32.98
2023-06-19T11:49:35.353Z,33.14
2023-06-19T11:50:35.288Z,33.55
2023-06-19T11:51:35.149Z,33.71
2023-06-19T11:52:35.101Z,33.57
2023-06-19T11:53:35.011Z,33.49
2023-06-19T11:54:35.172Z,33.42
2023-06-19T11:55:36.188Z,33.56
2023-06-19T11:56:35.225Z,33.71
2023-06-19T11:57:35.130Z,33.63
2023-06-19T11:58:35.033Z,33.62
2023-06-19T11:59:34.936Z,33.49
2023-06-19T12:00:34.849Z,33.69
2023-06-19T12:01:34.726Z,33.62
2023-06-19T12:02:35.215Z,33.43
2023-06-19T12:03:34.636Z,33.53
2023-06-19T12:04:35.166Z,33.45
2023-06-19T12:05:34.428Z,33.78
2023-06-19T12:06:34.373Z,33.84
2023-06-19T12:07:34.331Z,33.95
2023-06-19T12:08:34.281Z,33.93
2023-06-19T12:09:34.242Z,34.11
2023-06-19T12:10:34.155Z,34.18
2023-06-19T12:11:34.107Z,34.12
2023-06-19T12:12:34.033Z,34.12
2023-06-19T12:13:33.973Z,34.11
2023-06-19T12:14:33.918Z,34.12
2023-06-19T12:15:35.424Z,34.05
2023-06-19T12:16:33.763Z,33.88
2023-06-19T12:17:33.646Z,33.90
2023-06-19T12:18:33.503Z,33.98
2023-06-19T12:19:33.436Z,33.86
2023-06-19T12:20:33.292Z,33.88
2023-06-19T12:21:38.637Z,33.97
2023-06-19T12:22:34.055Z,33.95
2023-06-19T12:23:32.942Z,33.97
2023-06-19T12:24:32.915Z,34.00
2023-06-19T12:25:32.752Z,33.87
2023-06-19T12:26:32.604Z,33.86
2023-06-19T12:27:32.639Z,33.86
2023-06-19T12:28:32.401Z,33.57
2023-06-19T12:29:32.298Z,33.57
2023-06-19T12:30:32.206Z,33.57
2023-06-19T12:31:32.067Z,33.57
2023-06-19T12:32:32.113Z,33.52
2023-06-19T12:33:31.872Z,33.49
2023-06-19T12:34:32.106Z,33.45
2023-06-19T12:35:31.697Z,33.48
2023-06-19T12:36:31.549Z,33.48
2023-06-19T12:37:31.453Z,33.56
2023-06-19T12:38:31.358Z,33.56
2023-06-19T12:39:31.313Z,33.59
2023-06-19T12:40:31.148Z,33.63
2023-06-19T12:41:31.057Z,33.64
2023-06-19T12:42:30.950Z,33.80
2023-06-19T12:43:30.958Z,33.77
2023-06-19T12:44:30.801Z,33.70
2023-06-19T12:45:30.769Z,33.71
2023-06-19T12:46:30.787Z,33.69
2023-06-19T12:47:30.766Z,33.77
2023-06-19T12:48:30.551Z,33.53
2023-06-19T12:49:30.495Z,33.64
2023-06-19T12:50:30.383Z,33.43
2023-06-19T12:51:30.378Z,33.59
2023-06-19T12:52:30.577Z,33.62
2023-06-19T12:53:30.749Z,33.74